KSNK

Details ICAO KSNK
Name WINSTON FLD
Region United States
Timezone America/Chicago (UTC-6.0)
Plans Departing 2
Arriving 2
Stats Elevation 2,430 ft / 741 m (AMSL)
Location 32.693002° -100.950735°
Runways 2
Magnetic Variation 5.647° E
Sunrise 2017-12-11 13:37:31 UTC / 2017-12-11 07:37:31 Local
Sunset 2017-12-11 23:39:45 UTC / 2017-12-11 17:39:45 Local
Advertisement - Login to hide

Runways

ID Width Length Bearing (true) Bearing (mag) Surface Threshold Offset Overrun Length
08 75 ft / 23 m 4,191 ft / 1,278 m 90.36° 84.71° Asphalt 0 ft / 0 m 0 ft / 0 m
17 100 ft / 30 m 5,615 ft / 1,711 m 180.35° 174.70° Asphalt 0 ft / 0 m 0 ft / 0 m
26 75 ft / 23 m 4,191 ft / 1,278 m 270.36° 264.71° Asphalt 0 ft / 0 m 0 ft / 0 m
35 100 ft / 30 m 5,615 ft / 1,711 m 0.35° 354.70° Asphalt 0 ft / 0 m 0 ft / 0 m

Map

Weather


0- 5 10 15 20 25 30 35+ Temperature / ° C

Clouds and Precipitation
Forecast for 2017-12-11 18:00 UTC. Updated 10 minutes ago

Ground ~20,000 ft ~40,000 ft Winds

METAR

KSNK 111335Z AUTO 22003KT 10SM CLR 01/M06 A3033 RMK AO2 T00121065

TAF

Not found

Frequencies

Recorded 119.92 MHz AWOS 3
Unicom 122.80 MHz CTAF/UNICOM
Warning: Do not use this data for real-world aviation or navigation. No guarantee of current accuracy is given.